createdAt,value
2023-02-07T00:02:25.513Z,-3.33
2023-02-07T00:07:27.893Z,-3.36
2023-02-07T00:12:29.735Z,-3.27
2023-02-07T00:17:32.325Z,-3.18
2023-02-07T00:22:34.373Z,-3.11
2023-02-07T00:27:36.233Z,-2.97
2023-02-07T00:32:38.143Z,-3.04
2023-02-07T00:37:40.038Z,-3.05
2023-02-07T00:42:42.064Z,-3.12
2023-02-07T00:47:43.922Z,-3.22
2023-02-07T00:52:45.751Z,-3.33
2023-02-07T00:57:47.624Z,-3.39
2023-02-07T01:02:49.992Z,-3.27
2023-02-07T01:07:51.961Z,-3.20
2023-02-07T01:12:53.989Z,-3.08
2023-02-07T01:17:57.575Z,-3.21
2023-02-07T01:22:59.537Z,-3.41
2023-02-07T01:28:01.632Z,-3.39
2023-02-07T01:33:04.204Z,-3.21
2023-02-07T01:38:08.032Z,-3.15
2023-02-07T01:43:23.845Z,-3.15
2023-02-07T01:48:32.414Z,-3.31
2023-02-07T01:53:38.142Z,-3.45
2023-02-07T01:58:41.535Z,-3.47
2023-02-07T02:03:47.187Z,-3.56
2023-02-07T02:08:49.872Z,-3.74
2023-02-07T02:14:23.262Z,-3.76
2023-02-07T02:19:36.996Z,-3.92
2023-02-07T02:24:39.183Z,-3.97
2023-02-07T02:30:12.565Z,-3.87
2023-02-07T02:35:33.030Z,-3.68
2023-02-07T02:41:01.014Z,-3.57
2023-02-07T02:46:15.702Z,-3.52
2023-02-07T02:51:18.238Z,-3.41
2023-02-07T02:56:47.491Z,-3.46
2023-02-07T03:02:10.365Z,-3.62
2023-02-07T03:07:49.291Z,-3.70
2023-02-07T03:13:02.138Z,-3.63
2023-02-07T03:18:24.679Z,-3.58
2023-02-07T03:23:29.219Z,-3.58
2023-02-07T03:28:33.663Z,-3.60
2023-02-07T03:33:36.710Z,-3.75
2023-02-07T03:38:38.951Z,-3.79
2023-02-07T03:43:43.083Z,-3.82
2023-02-07T03:48:44.974Z,-3.88
2023-02-07T03:53:46.785Z,-3.97
2023-02-07T03:58:48.680Z,-4.15
2023-02-07T04:03:50.536Z,-4.39
2023-02-07T04:08:52.555Z,-4.52
2023-02-07T04:13:54.367Z,-4.52
2023-02-07T04:18:56.275Z,-4.56
2023-02-07T04:23:58.210Z,-4.64
2023-02-07T04:29:00.034Z,-4.61
2023-02-07T04:34:01.875Z,-4.54
2023-02-07T04:39:03.939Z,-4.60
2023-02-07T04:44:05.992Z,-4.62
2023-02-07T04:49:07.860Z,-4.52
2023-02-07T04:54:09.868Z,-4.38
2023-02-07T04:59:11.748Z,-4.15
2023-02-07T05:04:13.627Z,-3.96
2023-02-07T05:09:15.648Z,-3.85
2023-02-07T05:14:17.602Z,-3.90
2023-02-07T05:19:19.485Z,-4.13
2023-02-07T05:24:21.378Z,-4.16
2023-02-07T05:29:23.529Z,-4.25
2023-02-07T05:34:25.383Z,-4.30
2023-02-07T05:39:27.973Z,-4.33
2023-02-07T05:44:29.860Z,-4.35
2023-02-07T05:49:31.788Z,-4.28
2023-02-07T05:54:33.624Z,-4.23
2023-02-07T05:59:35.469Z,-4.13
2023-02-07T06:04:37.348Z,-3.98
2023-02-07T06:09:39.186Z,-3.93
2023-02-07T06:14:41.337Z,-3.81
2023-02-07T06:19:43.255Z,-3.79
2023-02-07T06:24:45.102Z,-3.88
2023-02-07T06:29:48.204Z,-3.84
2023-02-07T06:34:50.091Z,-3.83
2023-02-07T06:39:52.007Z,-3.81
2023-02-07T06:44:53.857Z,-3.77
2023-02-07T06:49:55.678Z,-3.76
2023-02-07T06:54:57.507Z,-3.68
2023-02-07T06:59:59.346Z,-3.63
2023-02-07T07:05:01.462Z,-3.64
2023-02-07T07:10:03.672Z,-3.66
2023-02-07T07:15:06.011Z,-3.52
2023-02-07T07:20:08.929Z,-3.38
2023-02-07T07:25:12.545Z,-3.32
2023-02-07T07:30:14.831Z,-3.15
2023-02-07T07:35:18.764Z,-2.92
2023-02-07T07:40:21.511Z,-2.63
2023-02-07T07:45:23.311Z,-2.46
2023-02-07T07:50:25.167Z,-2.20
2023-02-07T07:55:27.073Z,-1.90
2023-02-07T08:00:29.021Z,-1.54
2023-02-07T08:05:30.995Z,-1.12
2023-02-07T08:10:33.141Z,-0.74
2023-02-07T08:15:34.978Z,-0.36
2023-02-07T08:20:37.720Z,-0.02
2023-02-07T08:25:41.313Z,0.41
2023-02-07T08:30:43.647Z,0.85
2023-02-07T08:35:45.583Z,1.23
2023-02-07T08:40:47.460Z,1.63
2023-02-07T08:45:49.465Z,1.96
2023-02-07T08:50:51.342Z,2.23
2023-02-07T08:55:53.172Z,2.47
2023-02-07T09:00:55.230Z,2.61
2023-02-07T09:05:59.058Z,2.38
2023-02-07T09:11:00.952Z,2.49
2023-02-07T09:16:02.823Z,2.77
2023-02-07T09:21:05.303Z,3.09
2023-02-07T09:26:08.332Z,2.77
2023-02-07T09:31:11.914Z,2.58
2023-02-07T09:36:20.280Z,2.29
2023-02-07T09:41:22.501Z,2.12
2023-02-07T09:46:36.777Z,2.18
2023-02-07T09:51:40.659Z,2.36
2023-02-07T09:56:42.548Z,2.83
2023-02-07T10:01:48.557Z,3.14
2023-02-07T10:06:57.283Z,3.47
2023-02-07T10:12:36.492Z,3.73
2023-02-07T10:17:44.266Z,3.95
2023-02-07T10:23:04.482Z,4.02
2023-02-07T10:28:15.738Z,4.14
2023-02-07T10:33:20.175Z,4.16
2023-02-07T10:38:43.072Z,4.14
2023-02-07T10:43:47.038Z,4.04
2023-02-07T10:48:49.825Z,3.91
2023-02-07T10:54:08.690Z,3.86
2023-02-07T10:59:32.664Z,3.86
2023-02-07T11:04:34.518Z,3.83
2023-02-07T11:09:38.006Z,3.73
2023-02-07T11:14:45.620Z,3.70
2023-02-07T11:19:54.209Z,3.72
2023-02-07T11:25:04.263Z,3.74
2023-02-07T11:30:10.281Z,3.77
2023-02-07T11:35:21.109Z,3.83
2023-02-07T11:40:28.456Z,3.96
2023-02-07T11:45:34.603Z,4.09
2023-02-07T11:50:43.284Z,4.39
2023-02-07T11:55:45.229Z,4.52
2023-02-07T12:00:47.593Z,4.71
2023-02-07T12:05:53.546Z,4.82
2023-02-07T12:11:18.789Z,4.99
2023-02-07T12:16:29.351Z,5.14
2023-02-07T12:21:36.410Z,5.27
2023-02-07T12:26:47.842Z,5.56
2023-02-07T12:32:11.314Z,5.79
2023-02-07T12:37:43.980Z,6.19
2023-02-07T12:42:54.946Z,6.47
2023-02-07T12:48:37.625Z,6.76
2023-02-07T12:53:45.990Z,7.23
2023-02-07T12:58:48.015Z,7.43
2023-02-07T13:04:17.626Z,7.75
2023-02-07T13:09:25.302Z,8.01
2023-02-07T13:14:42.115Z,8.09
2023-02-07T13:19:55.344Z,8.24
2023-02-07T13:24:59.112Z,9.59
2023-02-07T13:30:01.831Z,12.22
2023-02-07T13:35:13.855Z,14.77
2023-02-07T13:40:27.602Z,16.41
2023-02-07T13:45:53.731Z,17.32
2023-02-07T13:51:20.305Z,18.63
2023-02-07T13:56:51.924Z,20.01
2023-02-07T14:01:58.395Z,20.26
2023-02-07T14:07:09.034Z,18.47
2023-02-07T14:12:41.152Z,16.51
2023-02-07T14:17:43.075Z,15.64
2023-02-07T14:22:44.846Z,13.66
2023-02-07T14:27:52.569Z,12.53
2023-02-07T14:33:20.034Z,11.39
2023-02-07T14:38:40.434Z,10.04
2023-02-07T14:43:44.518Z,9.26
2023-02-07T14:49:01.618Z,8.69
2023-02-07T14:54:08.588Z,8.31
2023-02-07T14:59:15.065Z,7.85
2023-02-07T15:04:17.071Z,7.37
2023-02-07T15:09:27.855Z,7.05
2023-02-07T15:14:34.704Z,6.76
2023-02-07T15:19:40.596Z,6.49
2023-02-07T15:24:51.366Z,6.25
2023-02-07T15:30:06.702Z,5.98
2023-02-07T15:35:29.288Z,5.64
2023-02-07T15:40:31.238Z,5.37
2023-02-07T15:45:33.740Z,5.19
2023-02-07T15:50:37.719Z,5.07
2023-02-07T15:55:48.521Z,4.94
2023-02-07T16:00:53.334Z,4.80
2023-02-07T16:06:07.553Z,4.67
2023-02-07T16:11:12.130Z,4.51
2023-02-07T16:16:25.703Z,4.38
2023-02-07T16:21:28.783Z,4.21
2023-02-07T16:26:30.774Z,4.13
2023-02-07T16:31:33.418Z,4.01
2023-02-07T16:36:35.269Z,3.88
2023-02-07T16:41:42.449Z,3.68
2023-02-07T16:46:44.417Z,3.55
2023-02-07T16:51:46.423Z,3.44
2023-02-07T16:56:51.052Z,2.99
2023-02-07T17:01:54.369Z,2.55
2023-02-07T17:06:56.238Z,2.46
2023-02-07T17:11:58.132Z,2.59
2023-02-07T17:16:59.959Z,2.62
2023-02-07T17:22:02.027Z,2.58
2023-02-07T17:27:03.899Z,2.33
2023-02-07T17:32:05.860Z,2.02
2023-02-07T17:37:11.787Z,1.73
2023-02-07T17:42:13.613Z,1.63
2023-02-07T17:47:15.430Z,1.90
2023-02-07T17:52:17.282Z,2.09
2023-02-07T17:57:19.088Z,2.17
2023-02-07T18:02:20.941Z,2.20
2023-02-07T18:07:22.806Z,2.11
2023-02-07T18:12:24.724Z,2.04
2023-02-07T18:17:27.349Z,1.95
2023-02-07T18:22:29.410Z,1.83
2023-02-07T18:27:31.750Z,1.83
2023-02-07T18:32:33.698Z,1.81
2023-02-07T18:37:35.625Z,1.65
2023-02-07T18:42:37.663Z,1.62
2023-02-07T18:47:40.006Z,1.54
2023-02-07T18:52:42.126Z,1.25
2023-02-07T18:57:44.165Z,0.89
2023-02-07T19:02:47.298Z,0.73
2023-02-07T19:07:49.142Z,0.71
2023-02-07T19:12:51.057Z,0.75
2023-02-07T19:17:52.848Z,0.78
2023-02-07T19:22:54.763Z,0.56
2023-02-07T19:27:56.790Z,0.23
2023-02-07T19:32:59.018Z,0.10
2023-02-07T19:38:01.026Z,-0.08
2023-02-07T19:43:03.001Z,-0.18
2023-02-07T19:48:05.306Z,-0.27
2023-02-07T19:53:07.218Z,-0.37
2023-02-07T19:58:09.245Z,-0.40
2023-02-07T20:03:11.291Z,-0.25
2023-02-07T20:08:13.879Z,-0.08
2023-02-07T20:13:16.046Z,-0.05
2023-02-07T20:18:18.017Z,-0.07
2023-02-07T20:23:19.905Z,-0.13
2023-02-07T20:28:21.957Z,-0.24
2023-02-07T20:33:24.209Z,-0.51
2023-02-07T20:38:26.231Z,-0.80
2023-02-07T20:43:28.107Z,-1.01
2023-02-07T20:48:30.038Z,-1.03
2023-02-07T20:53:32.754Z,-1.03
2023-02-07T20:58:34.893Z,-0.94
2023-02-07T21:03:37.717Z,-0.74
2023-02-07T21:08:40.263Z,-0.58
2023-02-07T21:13:42.105Z,-0.58
2023-02-07T21:18:47.772Z,-0.74
2023-02-07T21:23:49.968Z,-0.78
2023-02-07T21:28:51.796Z,-0.82
2023-02-07T21:33:53.730Z,-0.84
2023-02-07T21:38:57.741Z,-0.98
2023-02-07T21:43:59.964Z,-1.01
2023-02-07T21:49:14.298Z,-1.01
2023-02-07T21:54:16.787Z,-1.01
2023-02-07T21:59:20.257Z,-0.91
2023-02-07T22:04:22.157Z,-0.80
2023-02-07T22:09:24.002Z,-0.73
2023-02-07T22:14:25.978Z,-0.73
2023-02-07T22:19:27.875Z,-0.82
2023-02-07T22:24:31.829Z,-0.95
2023-02-07T22:29:33.696Z,-1.03
2023-02-07T22:34:36.367Z,-1.12
2023-02-07T22:39:38.209Z,-1.15
2023-02-07T22:44:40.121Z,-1.27
2023-02-07T22:49:42.031Z,-1.33
2023-02-07T22:54:44.488Z,-1.43
2023-02-07T22:59:46.338Z,-1.57
2023-02-07T23:04:48.189Z,-1.60
2023-02-07T23:09:50.023Z,-1.62
2023-02-07T23:14:52.001Z,-1.52
2023-02-07T23:19:54.098Z,-1.42
2023-02-07T23:24:56.077Z,-1.36
2023-02-07T23:29:57.936Z,-1.36
2023-02-07T23:34:59.852Z,-1.41
2023-02-07T23:40:02.013Z,-1.36
2023-02-07T23:45:04.079Z,-1.33
2023-02-07T23:50:06.290Z,-1.40
2023-02-07T23:55:08.288Z,-1.49
